createdAt,value
2019-02-07T00:00:55.718Z,49.93
2019-02-07T00:03:24.725Z,49.70
2019-02-07T00:05:53.741Z,49.54
2019-02-07T00:08:23.021Z,49.43
2019-02-07T00:10:52.002Z,49.38
2019-02-07T00:13:21.000Z,49.32
2019-02-07T00:15:49.982Z,49.14
2019-02-07T00:18:19.001Z,48.90
2019-02-07T00:20:48.345Z,48.87
2019-02-07T00:23:17.610Z,49.07
2019-02-07T00:25:46.636Z,49.03
2019-02-07T00:28:15.694Z,49.51
2019-02-07T00:30:44.682Z,49.70
2019-02-07T00:33:13.677Z,50.53
2019-02-07T00:35:42.669Z,51.44
2019-02-07T00:38:11.853Z,51.74
2019-02-07T00:40:40.836Z,52.17
2019-02-07T00:43:09.889Z,52.68
2019-02-07T00:45:38.847Z,53.13
2019-02-07T00:48:07.903Z,53.76
2019-02-07T00:50:36.900Z,54.47
2019-02-07T00:53:06.023Z,55.02
2019-02-07T00:55:35.059Z,55.87
2019-02-07T00:58:04.116Z,56.30
2019-02-07T01:00:33.149Z,56.73
2019-02-07T01:03:02.203Z,57.41
2019-02-07T01:05:31.331Z,58.33
2019-02-07T01:08:00.496Z,58.34
2019-02-07T01:10:29.542Z,58.23
2019-02-07T01:12:58.597Z,58.61
2019-02-07T01:15:27.730Z,59.42
2019-02-07T01:17:56.667Z,59.58
2019-02-07T01:20:25.658Z,60.31
2019-02-07T01:22:54.992Z,60.12
2019-02-07T01:25:24.084Z,60.80
2019-02-07T01:27:53.153Z,60.95
2019-02-07T01:30:22.413Z,61.63
2019-02-07T01:32:51.536Z,61.79
2019-02-07T01:35:20.564Z,61.70
2019-02-07T01:37:50.158Z,61.63
2019-02-07T01:40:19.237Z,62.19
2019-02-07T01:42:48.291Z,62.54
2019-02-07T01:45:20.400Z,62.87
2019-02-07T01:47:49.542Z,62.33
2019-02-07T01:50:20.107Z,63.03
2019-02-07T01:52:49.412Z,62.94
2019-02-07T01:55:18.454Z,63.09
2019-02-07T01:57:47.512Z,63.15
2019-02-07T02:00:17.596Z,63.22
2019-02-07T02:02:46.641Z,63.30
2019-02-07T02:05:16.517Z,63.52
2019-02-07T02:07:45.957Z,63.37
2019-02-07T02:10:17.149Z,63.23
2019-02-07T02:12:46.170Z,63.64
2019-02-07T02:15:24.078Z,63.73
2019-02-07T02:17:47.274Z,63.68
2019-02-07T02:20:16.974Z,64.15
2019-02-07T02:22:45.978Z,64.26
2019-02-07T02:25:15.006Z,64.35
2019-02-07T02:27:44.009Z,64.32
2019-02-07T02:30:33.229Z,64.31
2019-02-07T02:33:02.672Z,64.27
2019-02-07T02:35:31.675Z,64.37
2019-02-07T02:38:00.793Z,64.81
2019-02-07T02:40:29.845Z,64.91
2019-02-07T02:42:58.836Z,64.86
2019-02-07T02:45:37.109Z,65.28
2019-02-07T02:47:58.640Z,65.12
2019-02-07T02:50:27.628Z,65.43
2019-02-07T02:52:56.639Z,65.59
2019-02-07T02:55:34.225Z,65.31
2019-02-07T02:58:03.293Z,65.03
2019-02-07T03:00:50.059Z,65.15
2019-02-07T03:03:36.460Z,64.97
2019-02-07T03:06:25.787Z,65.18
2019-02-07T03:09:12.378Z,65.15
2019-02-07T03:11:53.942Z,64.91
2019-02-07T03:14:34.163Z,64.85
2019-02-07T03:17:12.735Z,65.23
2019-02-07T03:20:18.731Z,65.31
2019-02-07T03:23:10.601Z,64.72
2019-02-07T03:25:56.806Z,64.85
2019-02-07T03:28:44.329Z,64.83
2019-02-07T03:31:32.277Z,64.95
2019-02-07T03:34:18.651Z,65.04
2019-02-07T03:37:06.610Z,64.64
2019-02-07T03:39:52.998Z,64.72
2019-02-07T03:42:46.720Z,64.67
2019-02-07T03:45:37.475Z,64.32
2019-02-07T03:48:24.081Z,64.66
2019-02-07T03:51:12.070Z,64.15
2019-02-07T03:53:58.861Z,64.32
2019-02-07T03:56:45.351Z,64.16
2019-02-07T03:59:26.943Z,63.96
2019-02-07T04:02:14.926Z,63.93
2019-02-07T04:04:55.938Z,63.77
2019-02-07T04:07:37.485Z,63.76
2019-02-07T04:10:26.595Z,63.93
2019-02-07T04:13:06.944Z,63.93
2019-02-07T04:15:58.950Z,63.86
2019-02-07T04:18:49.806Z,63.30
2019-02-07T04:21:49.855Z,63.20
2019-02-07T04:24:52.714Z,63.17
2019-02-07T04:27:46.564Z,63.20
2019-02-07T04:30:34.734Z,63.22
2019-02-07T04:33:31.579Z,62.91
2019-02-07T04:36:16.567Z,62.97
2019-02-07T04:39:04.571Z,62.63
2019-02-07T04:42:04.662Z,62.71
2019-02-07T04:45:04.680Z,62.42
2019-02-07T04:47:57.497Z,62.49
2019-02-07T04:50:55.396Z,62.44
2019-02-07T04:53:43.382Z,62.53
2019-02-07T04:56:31.327Z,62.57
2019-02-07T04:59:19.304Z,62.46
2019-02-07T05:02:10.066Z,62.90
2019-02-07T05:05:10.286Z,62.99
2019-02-07T05:08:01.167Z,62.66
2019-02-07T05:10:47.624Z,62.98
2019-02-07T05:13:35.613Z,62.95
2019-02-07T05:16:42.901Z,63.08
2019-02-07T05:19:27.348Z,63.00
2019-02-07T05:22:11.938Z,63.22
2019-02-07T05:25:08.451Z,62.92
2019-02-07T05:27:56.451Z,62.92
2019-02-07T05:30:43.038Z,62.37
2019-02-07T05:33:27.558Z,62.55
2019-02-07T06:27:18.681Z,60.89
2019-02-07T06:30:12.465Z,60.93
2019-02-07T06:32:58.866Z,61.03
2019-02-07T06:35:44.514Z,61.20
2019-02-07T06:38:32.492Z,61.19
2019-02-07T06:41:20.806Z,61.37
2019-02-07T06:44:07.412Z,61.32
2019-02-07T06:47:01.595Z,61.09
2019-02-07T06:49:49.662Z,61.26
2019-02-07T06:52:40.742Z,61.20
2019-02-07T06:55:41.032Z,61.23
2019-02-07T06:58:32.057Z,61.04
2019-02-07T07:01:20.169Z,61.12
2019-02-07T07:04:15.958Z,61.10
2019-02-07T07:06:54.787Z,61.05
2019-02-07T07:09:45.925Z,60.67
2019-02-07T07:12:32.351Z,61.22
2019-02-07T07:15:22.634Z,61.73
2019-02-07T07:18:00.167Z,62.11
2019-02-07T07:20:39.072Z,62.10
2019-02-07T07:23:27.113Z,61.90
2019-02-07T07:26:21.178Z,62.13
2019-02-07T07:29:00.936Z,62.47
2019-02-07T07:31:48.620Z,62.51
2019-02-07T07:34:35.756Z,62.63
2019-02-07T07:37:23.872Z,62.88
2019-02-07T07:40:29.876Z,62.89
2019-02-07T07:43:15.038Z,62.84
2019-02-07T07:46:01.740Z,63.27
2019-02-07T07:48:48.078Z,63.40
2019-02-07T07:51:34.777Z,63.63
2019-02-07T07:54:21.562Z,63.77
2019-02-07T07:57:08.268Z,63.95
2019-02-07T07:59:59.098Z,63.96
2019-02-07T08:02:45.663Z,64.22
2019-02-07T08:05:33.675Z,64.29
2019-02-07T08:08:20.308Z,64.06
2019-02-07T08:11:00.604Z,64.07
2019-02-07T08:13:57.449Z,64.39
2019-02-07T08:16:52.500Z,64.26
2019-02-07T08:19:39.197Z,64.26
2019-02-07T08:22:18.504Z,63.79
2019-02-07T08:25:05.462Z,63.98
2019-02-07T08:28:05.385Z,63.99
2019-02-07T08:30:52.012Z,63.82
2019-02-07T08:33:34.352Z,63.83
2019-02-07T08:36:28.184Z,63.91
2019-02-07T08:39:19.147Z,63.83
2019-02-07T08:42:12.952Z,63.83
2019-02-07T08:44:55.977Z,64.30
2019-02-07T08:47:43.946Z,64.76
2019-02-07T08:50:41.545Z,65.07
2019-02-07T08:53:28.103Z,65.30
2019-02-07T08:56:16.184Z,65.27
2019-02-07T08:59:16.545Z,65.37
2019-02-07T09:02:04.650Z,65.12
2019-02-07T09:04:51.388Z,65.52
2019-02-07T09:07:36.017Z,65.24
2019-02-07T09:10:28.447Z,65.01
2019-02-07T09:13:10.925Z,64.93
2019-02-07T09:15:58.980Z,64.85
2019-02-07T09:18:47.406Z,64.45
2019-02-07T09:21:34.225Z,64.25
2019-02-07T09:24:13.075Z,64.09
2019-02-07T09:26:58.930Z,63.97
2019-02-07T09:29:49.733Z,63.52
2019-02-07T09:32:46.564Z,63.00
2019-02-07T09:35:46.673Z,63.13
2019-02-07T09:38:43.864Z,62.25
2019-02-07T09:41:20.994Z,62.47
2019-02-07T09:44:07.375Z,61.81
2019-02-07T09:46:49.681Z,61.28
2019-02-07T09:49:32.454Z,60.75
2019-02-07T09:52:23.292Z,60.04
2019-02-07T09:55:17.564Z,60.13
2019-02-07T09:58:20.456Z,60.00
2019-02-07T10:01:15.944Z,60.09
2019-02-07T10:04:02.474Z,59.48
2019-02-07T10:06:48.813Z,60.00
2019-02-07T10:09:42.568Z,59.83
2019-02-07T10:12:39.609Z,59.69
2019-02-07T10:15:36.698Z,59.23
2019-02-07T10:18:40.169Z,56.63
2019-02-07T10:21:28.173Z,52.63
2019-02-07T10:24:14.956Z,48.68
2019-02-07T10:27:11.933Z,47.22
2019-02-07T10:29:58.598Z,46.17
2019-02-07T10:32:38.724Z,45.88
2019-02-07T10:35:25.679Z,45.58
2019-02-07T10:38:05.061Z,43.89
2019-02-07T10:40:54.726Z,43.76
2019-02-07T10:43:53.887Z,43.44
2019-02-07T10:46:59.803Z,43.37
2019-02-07T10:49:58.869Z,42.01
2019-02-07T10:52:40.142Z,42.88
2019-02-07T10:55:19.471Z,41.38
2019-02-07T10:58:09.798Z,40.18
2019-02-07T11:01:15.914Z,39.56
2019-02-07T11:03:59.094Z,37.69
2019-02-07T11:06:41.173Z,35.46
2019-02-07T11:09:30.579Z,35.86
2019-02-07T11:12:17.201Z,35.32
2019-02-07T11:15:02.656Z,35.04
2019-02-07T11:17:50.914Z,35.49
2019-02-07T11:20:44.817Z,35.54
2019-02-07T11:23:31.776Z,35.29
2019-02-07T11:26:18.299Z,33.72
2019-02-07T11:29:05.942Z,32.91
2019-02-07T11:31:42.372Z,32.17
2019-02-07T11:34:36.419Z,30.80
2019-02-07T11:37:18.911Z,30.18
2019-02-07T11:40:16.046Z,30.40
2019-02-07T11:43:02.822Z,31.34
2019-02-07T11:45:50.892Z,32.29
2019-02-07T11:48:45.078Z,32.99
2019-02-07T11:51:35.877Z,33.13
2019-02-07T11:54:23.957Z,32.47
2019-02-07T11:57:10.584Z,32.33
2019-02-07T11:59:57.305Z,32.22
2019-02-07T12:02:37.547Z,32.10
2019-02-07T12:05:17.323Z,32.43
2019-02-07T12:08:11.210Z,32.34
2019-02-07T12:11:07.893Z,33.10
2019-02-07T12:13:58.894Z,32.91
2019-02-07T12:16:46.887Z,33.38
2019-02-07T12:19:34.742Z,33.53
2019-02-07T12:22:10.119Z,34.12
2019-02-07T12:24:56.891Z,34.12
2019-02-07T12:28:00.556Z,33.91
2019-02-07T12:30:48.677Z,33.86
2019-02-07T12:33:26.633Z,33.97
2019-02-07T12:36:23.651Z,32.36
2019-02-07T12:39:06.218Z,31.12
2019-02-07T12:42:00.665Z,29.55
2019-02-07T12:44:42.883Z,28.68
2019-02-07T12:47:37.017Z,27.38
2019-02-07T12:50:40.318Z,26.66
2019-02-07T12:53:28.465Z,26.86
2019-02-07T12:56:22.223Z,27.56
2019-02-07T12:59:06.519Z,27.78
2019-02-07T13:02:09.437Z,28.53
2019-02-07T13:04:55.931Z,29.89
2019-02-07T13:07:56.035Z,31.04
2019-02-07T13:10:42.559Z,32.21
2019-02-07T13:13:33.297Z,33.02
2019-02-07T13:16:24.302Z,33.60
2019-02-07T13:19:10.724Z,34.37
2019-02-07T13:22:10.523Z,34.94
2019-02-07T13:25:04.283Z,35.32
2019-02-07T13:27:42.020Z,35.22
2019-02-07T13:30:40.529Z,35.60
2019-02-07T13:33:40.599Z,35.77
2019-02-07T13:36:23.584Z,36.34
2019-02-07T13:39:10.001Z,36.06
2019-02-07T13:42:03.967Z,36.02
2019-02-07T13:44:48.618Z,35.96
2019-02-07T13:47:35.219Z,36.09
2019-02-07T13:50:38.083Z,36.27
2019-02-07T13:53:16.344Z,36.38
2019-02-07T13:56:07.453Z,36.58
2019-02-07T13:58:55.471Z,36.81
2019-02-07T14:01:52.628Z,36.95
2019-02-07T14:04:46.444Z,36.98
2019-02-07T14:07:27.702Z,36.78
2019-02-07T14:10:08.281Z,37.09
2019-02-07T14:13:05.195Z,37.39
2019-02-07T14:15:51.976Z,37.45
2019-02-07T14:18:38.217Z,37.58
2019-02-07T14:21:16.704Z,37.78
2019-02-07T14:24:10.427Z,37.96
2019-02-07T14:26:58.857Z,38.09
2019-02-07T14:29:52.739Z,38.24
2019-02-07T14:32:41.214Z,38.29
2019-02-07T14:35:30.015Z,38.34
2019-02-07T14:38:16.215Z,38.56
2019-02-07T14:41:06.367Z,38.51
2019-02-07T14:43:57.489Z,38.82
2019-02-07T14:46:43.705Z,38.77
2019-02-07T14:49:12.822Z,39.08
2019-02-07T14:51:41.887Z,39.17
2019-02-07T14:54:11.351Z,39.40
2019-02-07T14:56:40.340Z,39.45
2019-02-07T14:59:09.465Z,39.54
2019-02-07T15:01:38.586Z,39.46
2019-02-07T15:04:07.615Z,39.55
2019-02-07T15:06:36.630Z,39.84
2019-02-07T15:09:15.072Z,39.81
2019-02-07T15:11:44.273Z,39.93
2019-02-07T15:14:13.347Z,40.02
2019-02-07T15:16:42.433Z,40.18
2019-02-07T15:19:16.153Z,40.28
2019-02-07T15:21:45.247Z,40.39
2019-02-07T15:24:14.301Z,40.33
2019-02-07T15:26:43.425Z,40.28
2019-02-07T15:29:12.490Z,40.49
2019-02-07T15:31:41.538Z,40.40
2019-02-07T15:34:11.094Z,40.53
2019-02-07T15:36:41.587Z,40.17
2019-02-07T15:39:12.783Z,40.15
2019-02-07T15:41:41.835Z,40.20
2019-02-07T15:44:10.897Z,40.25
2019-02-07T15:46:39.982Z,40.25
2019-02-07T15:49:09.003Z,40.11
2019-02-07T15:51:38.092Z,40.21
2019-02-07T15:54:07.223Z,40.28
2019-02-07T15:56:38.323Z,40.40
2019-02-07T15:59:26.278Z,40.59
2019-02-07T16:02:23.149Z,40.61
2019-02-07T16:04:52.388Z,40.73
2019-02-07T16:07:21.419Z,40.58
2019-02-07T16:09:50.398Z,40.97
2019-02-07T16:12:19.462Z,41.12
2019-02-07T16:14:48.506Z,41.11
2019-02-07T16:17:17.553Z,41.16
2019-02-07T16:19:46.560Z,41.19
2019-02-07T16:22:15.665Z,41.41
2019-02-07T16:24:44.669Z,41.37
2019-02-07T16:27:13.771Z,41.40
2019-02-07T16:29:42.748Z,41.23
2019-02-07T16:32:11.851Z,41.38
2019-02-07T16:34:40.882Z,41.28
2019-02-07T16:37:10.081Z,41.29
2019-02-07T16:39:39.116Z,41.36
2019-02-07T16:42:08.180Z,41.42
2019-02-07T16:44:37.515Z,41.58
2019-02-07T16:47:06.572Z,41.68
2019-02-07T16:49:35.573Z,42.00
2019-02-07T16:52:04.604Z,42.17
2019-02-07T16:54:33.632Z,42.26
2019-02-07T16:57:02.727Z,42.49
2019-02-07T16:59:32.023Z,42.57
2019-02-07T17:02:01.114Z,42.67
2019-02-07T17:04:30.142Z,42.71
2019-02-07T17:06:59.180Z,42.94
2019-02-07T17:09:30.575Z,43.19
2019-02-07T17:12:01.064Z,43.38
2019-02-07T17:14:30.589Z,43.55
2019-02-07T17:16:59.708Z,43.75
2019-02-07T17:19:28.770Z,43.94
2019-02-07T17:21:57.764Z,44.13
2019-02-07T17:24:26.893Z,44.23
2019-02-07T17:26:55.997Z,44.40
2019-02-07T17:29:25.080Z,44.56
2019-02-07T17:31:54.224Z,44.69
2019-02-07T17:34:26.035Z,45.11
2019-02-07T17:36:55.057Z,45.25
2019-02-07T17:39:24.132Z,45.51
2019-02-07T17:41:53.184Z,45.71
2019-02-07T17:44:23.958Z,46.00
2019-02-07T17:46:53.896Z,46.25
2019-02-07T17:49:23.001Z,46.36
2019-02-07T17:51:52.084Z,46.46
2019-02-07T17:54:21.156Z,46.40
2019-02-07T17:56:50.260Z,46.47
2019-02-07T17:59:19.580Z,46.50
2019-02-07T18:01:48.755Z,46.50
2019-02-07T18:04:17.815Z,46.52
2019-02-07T18:06:46.822Z,46.46
2019-02-07T18:09:15.906Z,46.50
2019-02-07T18:11:44.939Z,46.64
2019-02-07T18:14:14.151Z,46.55
2019-02-07T18:16:43.498Z,46.60
2019-02-07T18:19:12.517Z,46.80
2019-02-07T18:21:41.623Z,46.74
2019-02-07T18:24:10.732Z,46.83
2019-02-07T18:26:39.795Z,46.83
2019-02-07T18:29:08.975Z,46.91
2019-02-07T18:31:38.074Z,46.96
2019-02-07T18:34:07.224Z,46.78
2019-02-07T18:36:36.355Z,46.80
2019-02-07T18:39:09.216Z,46.73
2019-02-07T18:41:38.241Z,46.73
2019-02-07T18:44:08.429Z,46.69
2019-02-07T18:46:37.443Z,46.74
2019-02-07T18:49:06.485Z,46.79
2019-02-07T18:51:45.139Z,46.79
2019-02-07T18:54:06.320Z,46.74
2019-02-07T18:56:35.385Z,46.76
2019-02-07T18:59:04.468Z,46.82
2019-02-07T19:01:33.765Z,46.86
2019-02-07T19:04:02.860Z,46.91
2019-02-07T19:06:31.883Z,46.88
2019-02-07T19:09:00.957Z,46.84
2019-02-07T19:11:30.007Z,46.99
2019-02-07T19:13:59.089Z,47.01
2019-02-07T19:16:28.556Z,47.06
2019-02-07T19:18:57.645Z,47.27
2019-02-07T19:21:26.651Z,47.46
2019-02-07T19:23:55.813Z,47.47
2019-02-07T19:26:24.890Z,47.74
2019-02-07T19:28:53.944Z,47.99
2019-02-07T19:31:23.189Z,47.96
2019-02-07T19:33:52.231Z,47.90
2019-02-07T19:36:21.238Z,48.18
2019-02-07T19:38:50.239Z,48.29
2019-02-07T19:41:19.245Z,48.33
2019-02-07T19:43:48.250Z,48.32
2019-02-07T19:46:17.276Z,48.35
2019-02-07T19:48:46.316Z,48.43
2019-02-07T19:51:15.344Z,48.39
2019-02-07T19:53:44.368Z,48.53
2019-02-07T19:56:13.457Z,48.64
2019-02-07T19:58:42.536Z,48.63
2019-02-07T20:01:11.563Z,48.72
2019-02-07T20:03:40.935Z,48.79
2019-02-07T20:06:09.939Z,48.81
2019-02-07T20:08:39.000Z,48.83
2019-02-07T20:11:08.056Z,48.90
2019-02-07T20:13:37.084Z,49.04
2019-02-07T20:16:06.156Z,49.13
2019-02-07T20:18:35.256Z,49.17
2019-02-07T20:21:04.508Z,49.26
2019-02-07T20:23:33.539Z,49.29
2019-02-07T20:26:02.583Z,49.55
2019-02-07T20:28:31.643Z,49.70
2019-02-07T20:31:00.692Z,49.75
2019-02-07T20:33:29.721Z,49.77
2019-02-07T20:35:58.741Z,49.92
2019-02-07T20:38:27.937Z,50.06
2019-02-07T20:40:56.987Z,50.14
2019-02-07T20:43:25.994Z,50.24
2019-02-07T20:45:55.040Z,50.42
2019-02-07T20:48:24.049Z,50.49
2019-02-07T20:50:53.114Z,50.45
2019-02-07T20:53:22.114Z,50.44
2019-02-07T20:55:51.248Z,50.44
2019-02-07T20:58:20.268Z,50.51
2019-02-07T21:00:49.304Z,50.48
2019-02-07T21:03:18.353Z,50.50
2019-02-07T21:05:47.433Z,50.52
2019-02-07T21:08:16.460Z,50.68
2019-02-07T21:10:45.707Z,50.60
2019-02-07T21:13:14.765Z,50.60
2019-02-07T21:15:43.770Z,50.62
2019-02-07T21:18:12.808Z,50.55
2019-02-07T21:20:41.811Z,50.52
2019-02-07T21:23:10.873Z,50.56
2019-02-07T21:25:50.739Z,50.48
2019-02-07T21:28:19.740Z,50.64
2019-02-07T21:30:48.712Z,50.68
2019-02-07T21:33:17.780Z,50.66
2019-02-07T21:35:46.794Z,50.72
2019-02-07T21:38:15.903Z,50.68
2019-02-07T21:40:44.983Z,50.68
2019-02-07T21:43:14.347Z,50.74
2019-02-07T21:45:43.402Z,50.78
2019-02-07T21:48:12.518Z,50.84
2019-02-07T21:50:41.507Z,50.92
2019-02-07T21:53:10.545Z,50.84
2019-02-07T21:55:39.591Z,50.90
2019-02-07T21:58:08.942Z,50.95
2019-02-07T22:00:42.761Z,50.92
2019-02-07T22:03:13.017Z,50.86
2019-02-07T22:05:42.050Z,50.83
2019-02-07T22:08:11.088Z,50.85
2019-02-07T22:10:40.222Z,50.84
2019-02-07T22:13:09.548Z,50.82
2019-02-07T22:15:38.628Z,50.78
2019-02-07T22:18:09.086Z,50.73
2019-02-07T22:20:38.080Z,50.68
2019-02-07T22:23:07.125Z,50.70
2019-02-07T22:25:36.231Z,50.72
2019-02-07T22:28:05.576Z,50.88
2019-02-07T22:30:35.094Z,50.84
2019-02-07T22:33:04.450Z,50.80
2019-02-07T22:35:33.449Z,50.83
2019-02-07T22:38:02.459Z,50.80
2019-02-07T22:40:31.470Z,50.92
2019-02-07T22:43:01.092Z,50.94
2019-02-07T22:45:30.133Z,50.97
2019-02-07T22:47:59.176Z,50.99
2019-02-07T22:50:29.104Z,50.93
2019-02-07T22:52:58.416Z,51.03
2019-02-07T22:55:27.395Z,51.04
2019-02-07T22:57:56.464Z,51.14
2019-02-07T23:01:12.268Z,51.12
2019-02-07T23:03:51.929Z,51.13
2019-02-07T23:06:20.999Z,51.08
2019-02-07T23:08:50.998Z,51.17
2019-02-07T23:11:19.972Z,51.13
2019-02-07T23:13:49.035Z,51.23
2019-02-07T23:16:18.039Z,51.22
2019-02-07T23:18:47.364Z,51.18
2019-02-07T23:21:16.448Z,51.20
2019-02-07T23:23:45.500Z,51.17
2019-02-07T23:26:14.555Z,51.32
2019-02-07T23:28:43.585Z,51.22
2019-02-07T23:31:12.666Z,51.19
2019-02-07T23:33:42.111Z,51.20
2019-02-07T23:36:11.151Z,51.18
2019-02-07T23:38:40.161Z,51.34
2019-02-07T23:41:10.089Z,51.34
2019-02-07T23:43:45.881Z,51.43
2019-02-07T23:46:11.233Z,51.41
2019-02-07T23:48:40.322Z,51.46
2019-02-07T23:51:09.432Z,51.47
2019-02-07T23:53:38.465Z,51.61
2019-02-07T23:56:07.879Z,51.61
2019-02-07T23:58:36.909Z,51.60
